createdAt,value
2017-05-04T00:00:06.570Z,34.36
2017-05-04T00:02:36.293Z,37.30
2017-05-04T00:05:05.158Z,39.64
2017-05-04T00:07:34.813Z,42.54
2017-05-04T00:10:03.729Z,44.24
2017-05-04T00:12:32.743Z,41.32
2017-05-04T00:15:01.638Z,41.54
2017-05-04T00:17:31.291Z,45.42
2017-05-04T00:20:00.234Z,46.46
2017-05-04T00:22:29.144Z,47.08
2017-05-04T00:24:57.307Z,41.24
2017-05-04T00:27:26.979Z,41.96
2017-05-04T00:29:56.040Z,43.48
2017-05-04T00:32:24.938Z,43.30
2017-05-04T00:34:53.862Z,44.14
2017-05-04T00:37:22.762Z,46.00
2017-05-04T00:39:51.704Z,51.64
2017-05-04T00:42:20.615Z,44.42
2017-05-04T00:44:49.514Z,44.68
2017-05-04T00:47:18.438Z,42.20
2017-05-04T00:49:47.351Z,44.58
2017-05-04T00:52:16.987Z,45.20
2017-05-04T00:54:45.956Z,41.66
2017-05-04T00:57:14.868Z,41.40
2017-05-04T00:59:43.802Z,44.24
2017-05-04T01:02:13.510Z,47.64
2017-05-04T01:04:43.153Z,44.28
2017-05-04T01:07:12.086Z,45.94
2017-05-04T01:09:41.022Z,45.58
2017-05-04T01:12:09.925Z,42.34
2017-05-04T01:14:38.851Z,43.00
2017-05-04T01:17:07.846Z,37.94
2017-05-04T01:19:36.750Z,41.58
2017-05-04T01:22:05.658Z,44.42
2017-05-04T01:24:35.389Z,49.10
2017-05-04T01:27:04.274Z,42.76
2017-05-04T01:29:33.933Z,43.62
2017-05-04T01:32:02.838Z,48.10
2017-05-04T01:34:31.742Z,47.08
2017-05-04T01:37:01.429Z,46.86
2017-05-04T01:39:30.341Z,49.68
2017-05-04T01:41:59.250Z,43.88
2017-05-04T01:44:28.914Z,40.02
2017-05-04T01:46:57.870Z,52.86
2017-05-04T01:49:26.783Z,49.68
2017-05-04T01:51:55.709Z,43.68
2017-05-04T01:54:25.368Z,46.80
2017-05-04T01:56:54.355Z,44.22
2017-05-04T01:59:23.278Z,42.42
2017-05-04T02:01:52.950Z,46.16
2017-05-04T02:04:21.855Z,39.54
2017-05-04T02:06:50.758Z,43.70
2017-05-04T02:09:20.471Z,49.86
2017-05-04T02:11:50.115Z,48.22
2017-05-04T02:14:19.035Z,47.16
2017-05-04T02:16:47.981Z,45.76
2017-05-04T02:19:16.895Z,45.92
2017-05-04T02:21:45.811Z,49.62
2017-05-04T02:24:15.813Z,44.32
2017-05-04T02:26:44.714Z,47.04
2017-05-04T02:29:13.641Z,46.86
2017-05-04T02:31:43.303Z,47.82
2017-05-04T02:34:12.207Z,47.10
2017-05-04T02:36:41.139Z,42.18
2017-05-04T02:39:10.770Z,50.46
2017-05-04T02:41:39.674Z,43.54
2017-05-04T02:44:08.610Z,48.14
2017-05-04T02:46:38.278Z,45.94
2017-05-04T02:49:07.186Z,52.40
2017-05-04T02:51:36.119Z,47.88
2017-05-04T02:54:05.770Z,40.28
2017-05-04T02:56:35.410Z,41.90
2017-05-04T02:59:04.310Z,42.16
2017-05-04T03:01:33.974Z,36.30
2017-05-04T03:04:02.951Z,39.52
2017-05-04T03:06:31.958Z,43.76
2017-05-04T03:09:01.032Z,43.64
2017-05-04T03:11:30.689Z,44.20
2017-05-04T03:13:59.588Z,37.42
2017-05-04T03:16:28.520Z,38.30
2017-05-04T03:18:58.151Z,37.16
2017-05-04T03:21:27.060Z,36.72
2017-05-04T03:23:55.977Z,40.32
2017-05-04T03:26:24.874Z,35.18
2017-05-04T03:28:54.558Z,33.12
2017-05-04T03:31:23.500Z,31.24
2017-05-04T03:33:53.139Z,28.68
2017-05-04T03:36:22.053Z,30.36
2017-05-04T03:38:50.998Z,26.64
2017-05-04T03:41:19.906Z,25.54
2017-05-04T03:43:48.822Z,25.10
2017-05-04T03:46:17.749Z,23.10
2017-05-04T03:48:47.390Z,22.28
2017-05-04T03:51:16.315Z,22.24
2017-05-04T03:53:45.257Z,27.60
2017-05-04T03:56:14.790Z,24.08
2017-05-04T03:58:43.696Z,26.44
2017-05-04T04:01:12.601Z,26.38
2017-05-04T04:03:41.498Z,23.12
2017-05-04T04:06:10.421Z,21.60
2017-05-04T04:08:39.450Z,21.12
2017-05-04T04:11:08.341Z,21.76
2017-05-04T04:13:37.275Z,19.60
2017-05-04T04:16:06.166Z,18.30
2017-05-04T04:18:35.123Z,20.24
2017-05-04T04:21:04.038Z,21.38
2017-05-04T04:23:32.935Z,17.24
2017-05-04T04:26:01.862Z,17.76
2017-05-04T04:28:31.511Z,16.78
2017-05-04T04:31:00.426Z,18.90
2017-05-04T04:33:29.374Z,15.36
2017-05-04T04:35:58.291Z,20.30
2017-05-04T04:38:27.191Z,17.26
2017-05-04T04:40:56.250Z,18.16
2017-05-04T04:43:25.308Z,17.92
2017-05-04T04:45:54.223Z,16.26
2017-05-04T04:48:23.890Z,15.48
2017-05-04T04:50:52.798Z,17.76
2017-05-04T04:53:21.716Z,17.32
2017-05-04T04:55:50.658Z,13.60
2017-05-04T04:58:19.571Z,18.34
2017-05-04T05:00:48.543Z,16.06
2017-05-04T05:03:17.465Z,15.78
2017-05-04T05:05:46.511Z,17.20
2017-05-04T05:08:15.549Z,20.16
2017-05-04T05:10:44.489Z,16.14
2017-05-04T05:13:14.166Z,17.72
2017-05-04T05:15:43.150Z,19.62
2017-05-04T05:18:12.097Z,16.72
2017-05-04T05:20:41.002Z,17.72
2017-05-04T05:23:09.914Z,14.34
2017-05-04T05:25:38.835Z,16.40
2017-05-04T05:28:07.754Z,17.82
2017-05-04T05:30:37.505Z,17.98
2017-05-04T05:33:06.442Z,14.92
2017-05-04T05:35:36.094Z,15.98
2017-05-04T05:38:05.006Z,15.50
2017-05-04T05:40:33.914Z,15.56
2017-05-04T05:43:02.931Z,18.56
2017-05-04T05:45:32.566Z,17.02
2017-05-04T05:48:01.470Z,16.16
2017-05-04T05:50:30.381Z,19.96
2017-05-04T05:52:59.300Z,14.36
2017-05-04T05:55:28.938Z,14.26
2017-05-04T05:57:57.853Z,18.18
2017-05-04T06:00:26.775Z,14.42
2017-05-04T06:02:55.702Z,18.68
2017-05-04T06:05:24.631Z,14.92
2017-05-04T06:07:53.707Z,16.32
2017-05-04T06:10:23.362Z,14.44
2017-05-04T06:12:52.273Z,15.12
2017-05-04T06:15:21.307Z,17.04
2017-05-04T06:17:50.946Z,16.76
2017-05-04T06:20:19.874Z,18.98
2017-05-04T06:22:48.821Z,16.22
2017-05-04T06:25:17.748Z,13.80
2017-05-04T06:27:46.705Z,15.34
2017-05-04T06:30:15.670Z,14.36
2017-05-04T06:32:45.330Z,14.66
2017-05-04T06:35:14.243Z,14.60
2017-05-04T06:37:43.159Z,12.70
2017-05-04T06:40:12.826Z,14.26
2017-05-04T06:42:41.763Z,18.44
2017-05-04T06:45:10.661Z,14.92
2017-05-04T06:47:39.578Z,15.26
2017-05-04T06:50:08.842Z,14.46
2017-05-04T06:52:37.783Z,17.02
2017-05-04T06:55:06.734Z,15.80
2017-05-04T06:57:35.674Z,13.42
2017-05-04T07:00:04.604Z,12.86
2017-05-04T07:02:34.280Z,13.76
2017-05-04T07:05:03.207Z,13.24
2017-05-04T07:07:33.539Z,13.40
2017-05-04T07:10:02.498Z,12.20
2017-05-04T07:12:31.411Z,13.90
2017-05-04T07:15:00.349Z,15.44
2017-05-04T07:17:29.993Z,13.82
2017-05-04T07:19:59.070Z,14.00
2017-05-04T07:22:27.974Z,14.44
2017-05-04T07:24:56.898Z,19.00
2017-05-04T07:27:25.853Z,17.36
2017-05-04T07:29:54.764Z,15.52
2017-05-04T07:32:23.675Z,14.24
2017-05-04T07:34:53.154Z,18.78
2017-05-04T07:37:22.117Z,13.60
2017-05-04T07:39:51.030Z,14.16
2017-05-04T07:42:19.933Z,18.04
2017-05-04T07:44:48.851Z,13.58
2017-05-04T07:47:18.501Z,12.32
2017-05-04T07:49:47.426Z,14.66
2017-05-04T07:52:16.412Z,14.20
2017-05-04T07:54:45.360Z,13.66
2017-05-04T07:57:14.275Z,14.24
2017-05-04T07:59:43.207Z,13.90
2017-05-04T08:02:12.109Z,14.32
2017-05-04T08:04:41.770Z,13.80
2017-05-04T08:07:11.430Z,15.66
2017-05-04T08:09:40.318Z,15.46
2017-05-04T08:12:09.238Z,14.36
2017-05-04T08:14:38.346Z,14.42
2017-05-04T08:17:08.019Z,14.76
2017-05-04T08:19:36.916Z,13.72
2017-05-04T08:22:05.814Z,14.70
2017-05-04T08:24:34.786Z,15.74
2017-05-04T08:27:03.686Z,16.28
2017-05-04T08:29:32.740Z,15.80
2017-05-04T08:32:01.642Z,16.50
2017-05-04T08:34:30.574Z,15.42
2017-05-04T08:36:59.474Z,14.98
2017-05-04T08:39:28.497Z,15.56
2017-05-04T08:41:57.394Z,14.04
2017-05-04T08:44:26.332Z,16.64
2017-05-04T08:46:55.242Z,15.64
2017-05-04T08:49:24.158Z,16.62
2017-05-04T08:51:53.906Z,15.18
2017-05-04T08:54:22.810Z,15.48
2017-05-04T08:56:52.765Z,16.96
2017-05-04T08:59:21.681Z,17.02
2017-05-04T09:01:50.615Z,18.00
2017-05-04T09:04:19.498Z,13.72
2017-05-04T09:06:48.410Z,13.22
2017-05-04T09:09:18.058Z,16.18
2017-05-04T09:11:46.986Z,16.24
2017-05-04T09:14:15.912Z,15.42
2017-05-04T09:16:45.567Z,17.54
2017-05-04T09:19:14.462Z,15.72
2017-05-04T09:21:43.386Z,16.26
2017-05-04T09:24:12.323Z,15.44
2017-05-04T09:26:41.247Z,17.44
2017-05-04T09:29:10.207Z,14.36
2017-05-04T09:31:39.141Z,23.88
2017-05-04T09:34:08.054Z,34.96
2017-05-04T09:36:38.259Z,32.16
2017-05-04T09:39:07.181Z,15.12
2017-05-04T09:41:36.843Z,17.24
2017-05-04T09:44:05.753Z,13.04
2017-05-04T09:46:34.665Z,16.70
2017-05-04T09:49:04.297Z,73.24
2017-05-04T09:51:33.218Z,16.18
2017-05-04T09:54:02.129Z,14.44
2017-05-04T09:56:31.132Z,16.04
2017-05-04T09:59:00.782Z,15.52
2017-05-04T10:01:29.710Z,17.74
2017-05-04T10:03:58.699Z,15.92
2017-05-04T10:06:27.614Z,16.00
2017-05-04T10:08:56.538Z,60.04
2017-05-04T10:11:25.437Z,25.46
2017-05-04T10:13:54.349Z,152.54
2017-05-04T10:16:24.023Z,20.00
2017-05-04T10:18:52.926Z,16.16
2017-05-04T10:21:22.595Z,17.43
2017-05-04T10:23:51.497Z,19.24
2017-05-04T10:38:42.478Z,18.82
2017-05-04T10:41:11.462Z,18.06
2017-05-04T10:43:40.438Z,20.64
2017-05-04T10:46:09.355Z,18.08
2017-05-04T10:48:38.318Z,19.48
2017-05-04T10:51:07.295Z,22.18
2017-05-04T10:53:36.936Z,20.16
2017-05-04T10:56:05.866Z,20.28
2017-05-04T10:58:35.530Z,21.74
2017-05-04T11:01:04.462Z,19.86
2017-05-04T11:03:33.398Z,20.18
2017-05-04T11:06:02.317Z,20.50
2017-05-04T11:08:32.105Z,21.12
2017-05-04T11:11:01.085Z,20.94
2017-05-04T11:13:30.054Z,25.52
2017-05-04T11:15:59.014Z,19.80
2017-05-04T11:18:28.741Z,18.76
2017-05-04T11:20:57.687Z,22.34
2017-05-04T11:23:26.578Z,19.80
2017-05-04T11:25:55.615Z,19.08
2017-05-04T11:28:24.627Z,18.58
2017-05-04T11:30:53.525Z,20.84
2017-05-04T11:33:22.444Z,19.04
2017-05-04T11:35:51.350Z,20.22
2017-05-04T11:38:20.277Z,19.28
2017-05-04T11:40:49.187Z,19.32
2017-05-04T11:43:18.135Z,20.66
2017-05-04T11:45:47.786Z,20.86
2017-05-04T11:48:16.706Z,24.36
2017-05-04T11:50:45.650Z,19.36
2017-05-04T11:53:14.546Z,21.98
2017-05-04T11:55:43.466Z,20.66
2017-05-04T11:58:12.444Z,20.86
2017-05-04T12:00:41.364Z,21.82
2017-05-04T12:03:10.265Z,21.88
2017-05-04T12:05:39.304Z,23.32
2017-05-04T12:08:08.206Z,22.84
2017-05-04T12:10:37.124Z,25.56
2017-05-04T12:13:06.030Z,24.00
2017-05-04T12:15:35.690Z,21.96
2017-05-04T12:18:04.610Z,23.38
2017-05-04T12:20:33.547Z,24.30
2017-05-04T12:23:02.741Z,22.70
2017-05-04T12:25:32.390Z,24.08
2017-05-04T12:28:01.296Z,22.12
2017-05-04T12:30:30.195Z,22.62
2017-05-04T12:32:59.155Z,24.36
2017-05-04T12:35:28.074Z,29.22
2017-05-04T12:37:57.121Z,24.98
2017-05-04T12:40:26.033Z,23.04
2017-05-04T12:43:00.728Z,22.98
2017-05-04T12:45:35.578Z,26.18
2017-05-04T12:48:10.178Z,24.26
2017-05-04T12:50:45.451Z,24.42
2017-05-04T12:53:20.111Z,20.50
2017-05-04T12:55:54.735Z,24.76
2017-05-04T12:58:29.345Z,17.68
2017-05-04T13:01:03.922Z,21.08
2017-05-04T13:03:38.498Z,18.96
2017-05-04T13:06:13.066Z,17.06
2017-05-04T13:08:48.318Z,17.22
2017-05-04T13:11:22.971Z,16.86
2017-05-04T13:13:57.582Z,18.00
2017-05-04T13:16:32.044Z,19.16
2017-05-04T13:19:06.789Z,17.24
2017-05-04T13:21:41.447Z,17.64
2017-05-04T13:24:16.038Z,16.30
2017-05-04T13:26:50.649Z,18.12
2017-05-04T13:29:25.993Z,16.28
2017-05-04T13:32:01.230Z,15.22
2017-05-04T13:34:35.812Z,15.60
2017-05-04T13:37:11.667Z,13.54
2017-05-04T13:39:46.107Z,15.88
2017-05-04T13:42:20.733Z,15.76
2017-05-04T13:44:56.110Z,12.86
2017-05-04T13:47:25.776Z,13.88
2017-05-04T13:49:54.687Z,14.06
2017-05-04T13:52:23.633Z,13.50
2017-05-04T13:54:52.598Z,12.08
2017-05-04T13:57:22.251Z,14.16
2017-05-04T13:59:51.187Z,12.60
2017-05-04T14:02:20.156Z,13.20
2017-05-04T14:04:49.077Z,13.90
2017-05-04T14:07:18.047Z,13.16
2017-05-04T14:09:48.027Z,13.66
2017-05-04T14:12:16.953Z,12.64
2017-05-04T14:14:46.740Z,13.10
2017-05-04T14:17:16.271Z,11.64
2017-05-04T14:19:45.967Z,14.80
2017-05-04T14:22:15.607Z,15.32
2017-05-04T14:24:44.520Z,16.02
2017-05-04T14:27:14.046Z,16.22
2017-05-04T14:29:42.987Z,12.68
2017-05-04T14:32:12.085Z,12.54
2017-05-04T14:34:41.023Z,12.04
2017-05-04T14:37:10.053Z,12.90
2017-05-04T14:39:39.724Z,12.68
2017-05-04T14:42:08.669Z,12.04
2017-05-04T14:44:37.798Z,15.04
2017-05-04T14:47:06.706Z,12.50
2017-05-04T14:49:36.086Z,10.80
2017-05-04T14:52:05.026Z,13.66
2017-05-04T14:54:34.694Z,12.94
2017-05-04T14:57:03.661Z,13.62
2017-05-04T14:59:33.361Z,13.58
2017-05-04T15:02:02.328Z,12.58
2017-05-04T15:04:32.052Z,12.52
2017-05-04T15:07:02.544Z,13.84
2017-05-04T15:09:31.511Z,12.08
2017-05-04T15:12:01.193Z,12.26
2017-05-04T15:14:31.667Z,12.24
2017-05-04T15:17:00.582Z,12.26
2017-05-04T15:19:29.542Z,12.52
2017-05-04T15:21:59.282Z,13.38
2017-05-04T15:24:28.242Z,12.82
2017-05-04T15:26:57.299Z,13.46
2017-05-04T15:29:26.320Z,14.00
2017-05-04T15:31:55.402Z,13.16
2017-05-04T15:34:25.087Z,15.06
2017-05-04T15:36:53.998Z,12.76
2017-05-04T15:39:23.703Z,13.82
2017-05-04T15:41:52.622Z,12.70
2017-05-04T15:44:21.575Z,13.50
2017-05-04T15:46:50.780Z,12.12
2017-05-04T15:49:20.782Z,13.90
2017-05-04T15:51:51.355Z,11.98
2017-05-04T15:54:20.768Z,13.94
2017-05-04T15:56:49.697Z,21.48
2017-05-04T15:59:18.794Z,17.20
2017-05-04T16:01:47.683Z,12.02
2017-05-04T16:04:16.628Z,11.92
2017-05-04T16:06:45.563Z,10.76
2017-05-04T16:09:14.503Z,11.24
2017-05-04T16:11:43.403Z,10.18
2017-05-04T16:14:12.500Z,12.54
2017-05-04T16:16:41.408Z,10.94
2017-05-04T16:19:10.356Z,8.62
2017-05-04T16:21:39.223Z,8.24
2017-05-04T16:24:08.139Z,6.64
2017-05-04T16:26:37.112Z,7.16
2017-05-04T16:29:06.760Z,8.00
2017-05-04T16:31:35.657Z,7.84
2017-05-04T16:34:04.587Z,7.98
2017-05-04T16:36:34.247Z,8.00
2017-05-04T16:39:03.163Z,7.78
2017-05-04T16:41:32.091Z,7.96
2017-05-04T16:44:01.019Z,9.26
2017-05-04T16:46:29.983Z,10.22
2017-05-04T16:48:58.944Z,8.24
2017-05-04T16:51:28.618Z,8.92
2017-05-04T16:53:57.718Z,8.62
2017-05-04T16:56:26.650Z,8.52
2017-05-04T16:58:57.154Z,8.26
2017-05-04T17:01:26.834Z,9.80
2017-05-04T17:03:55.747Z,9.58
2017-05-04T17:06:24.870Z,11.14
2017-05-04T17:08:53.872Z,10.54
2017-05-04T17:11:23.506Z,11.50
2017-05-04T17:13:52.462Z,10.96
2017-05-04T17:16:21.443Z,11.02
2017-05-04T17:18:50.366Z,11.38
2017-05-04T17:21:19.294Z,11.50
2017-05-04T17:23:48.234Z,12.84
2017-05-04T17:26:17.142Z,11.34
2017-05-04T17:28:46.102Z,10.74
2017-05-04T17:31:15.041Z,11.42
2017-05-04T17:33:43.962Z,11.46
2017-05-04T17:36:13.647Z,11.08
2017-05-04T17:38:42.588Z,11.38
2017-05-04T17:41:11.515Z,10.18
2017-05-04T17:43:40.466Z,10.48
2017-05-04T17:46:10.122Z,10.74
2017-05-04T17:48:39.036Z,10.56
2017-05-04T17:51:07.922Z,10.60
2017-05-04T17:53:37.481Z,13.42
2017-05-04T17:56:06.374Z,10.46
2017-05-04T17:58:35.318Z,10.30
2017-05-04T18:01:05.675Z,10.14
2017-05-04T18:03:34.591Z,10.58
2017-05-04T18:06:03.539Z,10.42
2017-05-04T18:08:33.196Z,9.00
2017-05-04T18:11:02.105Z,8.94
2017-05-04T18:13:31.043Z,12.56
2017-05-04T18:15:59.998Z,15.58
2017-05-04T18:18:28.915Z,33.90
2017-05-04T18:20:57.865Z,27.58
2017-05-04T18:23:26.781Z,13.36
2017-05-04T18:25:55.701Z,34.54
2017-05-04T18:28:25.401Z,11.54
2017-05-04T18:30:54.322Z,10.88
2017-05-04T18:33:23.985Z,8.50
2017-05-04T18:35:52.950Z,8.40
2017-05-04T18:38:21.934Z,9.92
2017-05-04T18:40:51.669Z,10.40
2017-05-04T18:43:20.728Z,8.74
2017-05-04T18:45:49.621Z,8.84
2017-05-04T18:48:18.518Z,7.50
2017-05-04T18:50:47.446Z,7.00
2017-05-04T18:53:16.730Z,8.66
2017-05-04T18:55:45.641Z,7.86
2017-05-04T18:58:14.568Z,12.92
2017-05-04T19:00:44.240Z,11.12
2017-05-04T19:03:13.201Z,8.76
2017-05-04T19:05:42.083Z,8.18
2017-05-04T19:08:11.069Z,8.82
2017-05-04T19:10:40.766Z,12.98
2017-05-04T19:13:09.771Z,10.44
2017-05-04T19:15:38.702Z,9.80
2017-05-04T19:18:07.623Z,7.94
2017-05-04T19:20:36.935Z,9.80
2017-05-04T19:23:05.860Z,10.46
2017-05-04T19:25:34.785Z,9.36
2017-05-04T19:28:03.712Z,9.50
2017-05-04T19:30:33.398Z,15.84
2017-05-04T19:33:02.462Z,9.56
2017-05-04T19:35:31.371Z,10.44
2017-05-04T19:38:00.301Z,8.34
2017-05-04T19:40:29.952Z,6.34
2017-05-04T19:42:59.776Z,5.82
2017-05-04T19:45:28.708Z,8.44
2017-05-04T19:47:57.701Z,7.66
2017-05-04T19:50:27.408Z,9.30
2017-05-04T19:52:57.082Z,10.76
2017-05-04T19:55:25.990Z,12.56
2017-05-04T19:57:55.799Z,7.56
2017-05-04T20:00:25.475Z,9.84
2017-05-04T20:02:55.198Z,8.64
2017-05-04T20:05:24.145Z,8.78
2017-05-04T20:07:53.071Z,8.22
2017-05-04T20:10:22.031Z,8.30
2017-05-04T20:12:51.055Z,11.88
2017-05-04T20:15:20.703Z,8.56
2017-05-04T20:17:49.612Z,9.22
2017-05-04T20:20:18.571Z,8.82
2017-05-04T20:22:48.252Z,8.04
2017-05-04T20:25:18.651Z,8.82
2017-05-04T20:27:47.580Z,9.82
2017-05-04T20:30:17.238Z,12.32
2017-05-04T20:32:46.232Z,12.66
2017-05-04T20:35:15.149Z,10.58
2017-05-04T20:37:44.062Z,10.88
2017-05-04T20:40:13.711Z,11.68
2017-05-04T20:42:42.677Z,13.38
2017-05-04T20:45:11.590Z,11.46
2017-05-04T20:47:40.542Z,12.84
2017-05-04T20:50:09.547Z,12.84
2017-05-04T20:52:39.167Z,14.32
2017-05-04T20:55:08.092Z,15.36
2017-05-04T20:57:37.056Z,14.88
2017-05-04T21:00:05.923Z,17.10
2017-05-04T21:02:35.133Z,15.98
2017-05-04T21:05:04.055Z,18.94
2017-05-04T21:07:32.979Z,17.66
2017-05-04T21:10:02.641Z,17.32
2017-05-04T21:12:32.027Z,16.88
2017-05-04T21:15:01.112Z,17.22
2017-05-04T21:17:30.137Z,18.30
2017-05-04T21:19:59.046Z,19.02
2017-05-04T21:22:28.723Z,19.58
2017-05-04T21:24:57.715Z,21.12
2017-05-04T21:27:26.618Z,20.76
2017-05-04T21:29:55.529Z,20.96
2017-05-04T21:32:25.192Z,20.10
2017-05-04T21:34:54.102Z,16.18
2017-05-04T21:37:23.027Z,17.58
2017-05-04T21:39:52.698Z,18.46
2017-05-04T21:42:21.606Z,16.62
2017-05-04T21:44:50.562Z,15.28
2017-05-04T21:47:19.466Z,13.40
2017-05-04T21:49:48.374Z,13.08
2017-05-04T21:52:17.299Z,14.06
2017-05-04T21:54:46.224Z,10.92
2017-05-04T21:57:15.134Z,11.80
2017-05-04T21:59:44.058Z,10.48
2017-05-04T22:02:13.781Z,10.98
2017-05-04T22:04:42.697Z,12.16
2017-05-04T22:07:11.648Z,12.50
2017-05-04T22:09:41.282Z,11.78
2017-05-04T22:12:10.186Z,13.24
2017-05-04T22:14:39.298Z,10.84
2017-05-04T22:17:08.248Z,13.56
2017-05-04T22:19:37.895Z,12.34
2017-05-04T22:22:06.814Z,14.32
2017-05-04T22:24:35.895Z,14.80
2017-05-04T22:27:04.903Z,14.56
2017-05-04T22:29:33.802Z,15.36
2017-05-04T22:32:03.569Z,13.98
2017-05-04T22:34:32.477Z,14.82
2017-05-04T22:37:01.412Z,15.10
2017-05-04T22:39:31.062Z,15.06
2017-05-04T22:41:59.958Z,16.68
2017-05-04T22:44:29.009Z,17.34
2017-05-04T22:46:57.926Z,16.48
2017-05-04T22:49:26.829Z,16.26
2017-05-04T22:51:55.780Z,14.80
2017-05-04T22:54:25.424Z,17.52
2017-05-04T22:56:54.334Z,14.74
2017-05-04T22:59:23.286Z,16.78
2017-05-04T23:01:52.198Z,16.58
2017-05-04T23:04:21.114Z,15.90
2017-05-04T23:06:50.054Z,15.12
2017-05-04T23:09:18.996Z,16.56
2017-05-04T23:11:47.893Z,13.24
2017-05-04T23:14:16.818Z,15.46
2017-05-04T23:16:46.484Z,15.30
2017-05-04T23:19:15.402Z,15.88
2017-05-04T23:21:44.351Z,17.24
2017-05-04T23:24:13.267Z,14.54
2017-05-04T23:26:42.227Z,15.32
2017-05-04T23:29:11.152Z,16.02
2017-05-04T23:31:40.057Z,16.50
2017-05-04T23:34:08.999Z,15.26
2017-05-04T23:36:37.908Z,15.02
2017-05-04T23:39:06.813Z,16.38
2017-05-04T23:41:35.873Z,15.24
2017-05-04T23:44:04.777Z,14.40
2017-05-04T23:46:33.687Z,16.86
2017-05-04T23:49:02.682Z,15.90
2017-05-04T23:51:31.598Z,17.12
2017-05-04T23:54:01.274Z,15.34
2017-05-04T23:56:30.214Z,15.94
2017-05-04T23:58:59.882Z,16.38
